createdAt,value
2022-08-19T00:01:14.316Z,19.95
2022-08-19T00:03:29.291Z,19.02
2022-08-19T00:05:32.724Z,18.83
2022-08-19T00:07:35.977Z,19.92
2022-08-19T00:09:41.738Z,20.05
2022-08-19T00:11:45.316Z,18.73
2022-08-19T00:13:48.835Z,19.42
2022-08-19T00:15:51.862Z,18.90
2022-08-19T00:17:55.478Z,19.25
2022-08-19T00:19:58.532Z,18.80
2022-08-19T00:22:01.603Z,19.50
2022-08-19T00:24:05.233Z,19.35
2022-08-19T00:26:11.478Z,18.52
2022-08-19T00:28:15.024Z,18.42
2022-08-19T00:30:18.188Z,19.17
2022-08-19T00:32:21.423Z,19.00
2022-08-19T00:34:24.487Z,18.95
2022-08-19T00:36:27.626Z,19.55
2022-08-19T00:38:35.217Z,19.52
2022-08-19T00:40:43.839Z,19.58
2022-08-19T00:42:49.409Z,19.33
2022-08-19T00:44:52.736Z,20.02
2022-08-19T00:46:58.772Z,19.52
2022-08-19T00:49:04.059Z,19.13
2022-08-19T00:51:07.350Z,19.33
2022-08-19T00:53:12.079Z,19.00
2022-08-19T00:55:18.615Z,18.75
2022-08-19T00:57:27.743Z,19.85
2022-08-19T00:59:56.391Z,19.23
2022-08-19T01:01:59.188Z,19.40
2022-08-19T01:04:02.597Z,18.65
2022-08-19T01:06:06.919Z,18.33
2022-08-19T01:08:11.177Z,19.38
2022-08-19T01:10:17.085Z,18.90
2022-08-19T01:12:20.409Z,19.63
2022-08-19T01:14:25.068Z,21.40
2022-08-19T01:16:31.454Z,20.05
2022-08-19T01:18:39.111Z,19.63
2022-08-19T01:20:43.255Z,19.60
2022-08-19T01:22:50.873Z,19.45
2022-08-19T01:24:53.978Z,19.35
2022-08-19T01:26:59.363Z,18.77
2022-08-19T01:29:02.344Z,20.05
2022-08-19T01:31:26.889Z,21.40
2022-08-19T01:33:30.972Z,21.80
2022-08-19T01:35:35.892Z,22.08
2022-08-19T01:37:54.415Z,23.13
2022-08-19T01:39:57.666Z,23.25
2022-08-19T01:42:00.796Z,23.80
2022-08-19T01:44:17.774Z,24.92
2022-08-19T01:46:24.967Z,24.67
2022-08-19T01:48:28.017Z,25.00
2022-08-19T01:50:31.710Z,24.42
2022-08-19T01:52:36.089Z,25.23
2022-08-19T01:54:41.279Z,24.00
2022-08-19T01:56:44.391Z,23.95
2022-08-19T01:58:52.529Z,25.60
2022-08-19T02:00:55.881Z,26.27
2022-08-19T02:02:59.100Z,25.50
2022-08-19T02:05:02.336Z,25.20
2022-08-19T02:07:05.642Z,24.88
2022-08-19T02:09:09.485Z,27.17
2022-08-19T02:11:20.965Z,25.67
2022-08-19T02:13:27.415Z,26.85
2022-08-19T02:15:30.708Z,26.20
2022-08-19T02:17:33.367Z,27.77
2022-08-19T02:19:36.096Z,27.88
2022-08-19T02:21:41.695Z,28.52
2022-08-19T02:23:44.595Z,28.15
2022-08-19T02:25:49.131Z,27.98
2022-08-19T02:27:54.695Z,28.92
2022-08-19T02:29:57.901Z,28.73
2022-08-19T02:32:00.870Z,27.20
2022-08-19T02:34:04.191Z,27.80
2022-08-19T02:36:12.785Z,31.40
2022-08-19T02:38:18.536Z,28.90
2022-08-19T02:40:21.539Z,29.80
2022-08-19T02:42:24.910Z,29.73
2022-08-19T02:44:32.029Z,29.38
2022-08-19T02:46:35.569Z,30.92
2022-08-19T02:48:38.655Z,29.38
2022-08-19T02:50:51.943Z,29.42
2022-08-19T02:52:56.532Z,31.60
2022-08-19T02:54:59.779Z,31.00
2022-08-19T02:57:03.244Z,30.98
2022-08-19T02:59:07.629Z,30.90
2022-08-19T03:01:21.622Z,31.38
2022-08-19T03:03:24.811Z,33.97
2022-08-19T03:05:46.871Z,32.55
2022-08-19T03:07:51.008Z,32.25
2022-08-19T03:09:54.036Z,32.10
2022-08-19T03:11:57.150Z,32.78
2022-08-19T03:14:01.228Z,31.83
2022-08-19T03:16:06.247Z,31.30
2022-08-19T03:18:12.291Z,30.83
2022-08-19T03:20:16.029Z,32.20
2022-08-19T03:22:19.025Z,32.28
2022-08-19T03:24:24.036Z,32.05
2022-08-19T03:26:27.601Z,33.15
2022-08-19T03:28:30.549Z,33.33
2022-08-19T03:30:33.644Z,33.50
2022-08-19T03:32:36.686Z,34.40
2022-08-19T03:34:47.399Z,33.20
2022-08-19T03:36:50.458Z,35.90
2022-08-19T03:38:59.741Z,34.10
2022-08-19T03:41:08.145Z,33.75
2022-08-19T03:43:11.146Z,35.20
2022-08-19T03:45:14.178Z,34.75
2022-08-19T03:47:17.322Z,34.38
2022-08-19T03:49:21.688Z,31.92
2022-08-19T03:51:38.813Z,31.25
2022-08-19T03:53:41.946Z,31.65
2022-08-19T03:55:44.886Z,31.75
2022-08-19T03:57:47.878Z,31.77
2022-08-19T03:59:50.813Z,32.53
2022-08-19T04:01:54.878Z,32.97
2022-08-19T04:03:59.331Z,31.75
2022-08-19T04:06:11.447Z,32.28
2022-08-19T04:08:17.357Z,32.80
2022-08-19T04:10:20.386Z,32.70
2022-08-19T04:12:23.417Z,31.42
2022-08-19T04:14:29.112Z,30.58
2022-08-19T04:16:35.328Z,28.63
2022-08-19T04:18:39.833Z,28.65
2022-08-19T04:20:45.077Z,29.40
2022-08-19T04:22:47.833Z,29.85
2022-08-19T04:24:53.063Z,30.90
2022-08-19T04:26:55.665Z,29.45
2022-08-19T04:28:59.083Z,30.40
2022-08-19T04:31:02.073Z,30.27
2022-08-19T04:33:05.076Z,29.98
2022-08-19T04:35:17.670Z,28.45
2022-08-19T04:37:22.342Z,28.17
2022-08-19T04:39:28.657Z,29.05
2022-08-19T04:41:34.502Z,27.58
2022-08-19T04:43:39.443Z,28.25
2022-08-19T04:45:44.600Z,29.65
2022-08-19T04:47:58.470Z,28.85
2022-08-19T04:50:11.320Z,29.55
2022-08-19T04:52:14.639Z,31.13
2022-08-19T04:54:33.739Z,30.38
2022-08-19T04:56:44.173Z,33.72
2022-08-19T04:58:47.841Z,35.60
2022-08-19T05:00:51.048Z,34.33
2022-08-19T05:02:54.218Z,34.60
2022-08-19T05:04:58.589Z,35.90
2022-08-19T05:07:02.439Z,35.15
2022-08-19T05:09:06.405Z,34.75
2022-08-19T05:11:11.802Z,32.88
2022-08-19T05:13:20.863Z,34.15
2022-08-19T05:15:23.883Z,35.50
2022-08-19T05:17:29.651Z,33.05
2022-08-19T05:19:35.359Z,33.88
2022-08-19T05:21:38.512Z,33.67
2022-08-19T05:23:41.434Z,33.25
2022-08-19T05:25:44.730Z,31.80
2022-08-19T05:27:48.619Z,32.58
2022-08-19T05:29:54.280Z,31.15
2022-08-19T05:31:57.220Z,32.00
2022-08-19T05:34:00.396Z,32.40
2022-08-19T05:36:04.485Z,32.90
2022-08-19T05:38:07.611Z,31.48
2022-08-19T05:40:11.843Z,32.55
2022-08-19T05:42:15.000Z,32.92
2022-08-19T05:44:18.400Z,32.25
2022-08-19T05:46:28.171Z,33.33
2022-08-19T05:48:31.358Z,33.78
2022-08-19T05:50:34.343Z,32.25
2022-08-19T05:52:38.724Z,34.10
2022-08-19T05:54:51.210Z,32.78
2022-08-19T05:56:55.039Z,33.88
2022-08-19T05:58:58.765Z,32.63
2022-08-19T06:01:02.446Z,32.85
2022-08-19T06:03:09.721Z,34.28
2022-08-19T06:05:16.229Z,33.67
2022-08-19T06:07:19.342Z,31.58
2022-08-19T06:09:23.437Z,32.90
2022-08-19T06:11:34.309Z,31.88
2022-08-19T06:13:37.343Z,31.70
2022-08-19T06:15:40.342Z,32.80
2022-08-19T06:17:43.369Z,30.30
2022-08-19T06:19:48.993Z,31.95
2022-08-19T06:21:53.751Z,29.83
2022-08-19T06:23:57.828Z,29.67
2022-08-19T06:26:00.919Z,30.70
2022-08-19T06:28:19.754Z,29.10
2022-08-19T06:30:23.131Z,28.47
2022-08-19T06:32:26.178Z,29.80
2022-08-19T06:34:31.686Z,27.20
2022-08-19T06:36:39.851Z,27.27
2022-08-19T06:38:42.853Z,27.45
2022-08-19T06:40:48.897Z,26.92
2022-08-19T06:42:54.781Z,26.02
2022-08-19T06:44:58.375Z,25.92
2022-08-19T06:47:09.577Z,25.92
2022-08-19T06:49:18.488Z,25.20
2022-08-19T06:51:23.079Z,24.88
2022-08-19T06:53:29.163Z,24.85
2022-08-19T06:55:33.401Z,24.92
2022-08-19T06:57:36.798Z,24.02
2022-08-19T06:59:40.074Z,24.83
2022-08-19T07:01:45.454Z,24.50
2022-08-19T07:03:48.538Z,25.25
2022-08-19T07:05:51.528Z,22.25
2022-08-19T07:07:57.586Z,22.70
2022-08-19T07:10:07.721Z,21.75
2022-08-19T07:12:13.780Z,21.05
2022-08-19T07:14:19.972Z,20.35
2022-08-19T07:16:29.034Z,18.20
2022-08-19T07:18:32.564Z,16.27
2022-08-19T07:20:35.998Z,16.10
2022-08-19T07:22:40.490Z,15.13
2022-08-19T07:24:51.309Z,13.98
2022-08-19T07:26:59.308Z,12.75
2022-08-19T07:29:02.328Z,12.48
2022-08-19T07:31:07.527Z,12.18
2022-08-19T07:33:12.036Z,11.02
2022-08-19T07:35:17.905Z,9.57
2022-08-19T07:37:20.897Z,9.60
2022-08-19T07:39:26.737Z,8.35
2022-08-19T07:41:30.844Z,9.25
2022-08-19T07:43:36.491Z,8.18
2022-08-19T07:45:39.645Z,8.07
2022-08-19T07:47:50.318Z,7.55
2022-08-19T07:49:54.153Z,7.80
2022-08-19T07:52:00.007Z,7.72
2022-08-19T07:54:03.071Z,8.48
2022-08-19T07:56:06.855Z,8.00
2022-08-19T07:58:11.202Z,7.20
2022-08-19T08:00:20.440Z,6.28
2022-08-19T08:02:27.558Z,7.20
2022-08-19T08:04:32.068Z,6.60
2022-08-19T08:06:35.103Z,6.22
2022-08-19T08:08:44.342Z,6.07
2022-08-19T08:10:53.164Z,6.25
2022-08-19T08:13:10.172Z,6.05
2022-08-19T08:15:17.128Z,6.07
2022-08-19T08:17:48.473Z,6.18
2022-08-19T08:19:46.602Z,6.20
2022-08-19T08:21:56.315Z,7.03
2022-08-19T08:26:22.189Z,6.30
2022-08-19T08:28:29.766Z,6.35
2022-08-19T08:30:35.642Z,6.57
2022-08-19T08:32:39.973Z,6.18
2022-08-19T08:34:44.537Z,6.80
2022-08-19T08:36:50.752Z,6.72
2022-08-19T08:41:23.392Z,6.78
2022-08-19T08:43:32.251Z,6.45
2022-08-19T08:45:44.535Z,6.88
2022-08-19T08:47:53.578Z,6.75
2022-08-19T08:50:02.129Z,6.65
2022-08-19T08:52:07.845Z,7.85
2022-08-19T08:54:13.540Z,7.53
2022-08-19T08:56:18.783Z,8.00
2022-08-19T08:58:28.207Z,8.32
2022-08-19T09:00:33.646Z,8.57
2022-08-19T09:02:39.530Z,8.45
2022-08-19T09:04:46.732Z,9.05
2022-08-19T09:07:01.811Z,8.93
2022-08-19T09:09:28.917Z,8.98
2022-08-19T09:11:48.545Z,8.52
2022-08-19T09:14:05.872Z,8.88
2022-08-19T09:16:12.687Z,9.27
2022-08-19T09:18:19.366Z,9.30
2022-08-19T09:20:26.282Z,9.32
2022-08-19T09:22:29.415Z,9.93
2022-08-19T09:24:32.381Z,10.13
2022-08-19T09:26:48.671Z,10.48
2022-08-19T09:28:55.936Z,10.77
2022-08-19T09:31:01.290Z,10.93
2022-08-19T09:33:04.314Z,10.98
2022-08-19T09:35:10.775Z,12.38
2022-08-19T09:37:15.331Z,12.32
2022-08-19T09:39:18.318Z,12.50
2022-08-19T09:41:24.112Z,14.25
2022-08-19T09:43:33.269Z,14.70
2022-08-19T09:45:37.051Z,13.18
2022-08-19T09:47:40.668Z,14.68
2022-08-19T09:49:43.888Z,13.98
2022-08-19T09:51:51.496Z,13.10
2022-08-19T09:53:55.337Z,14.85
2022-08-19T09:55:58.827Z,13.40
2022-08-19T09:58:02.415Z,13.90
2022-08-19T10:00:08.457Z,14.30
2022-08-19T10:02:11.499Z,14.27
2022-08-19T10:04:19.742Z,13.65
2022-08-19T10:06:43.946Z,14.77
2022-08-19T10:08:52.245Z,15.20
2022-08-19T10:10:56.258Z,14.65
2022-08-19T10:12:59.301Z,14.80
2022-08-19T10:15:05.258Z,14.32
2022-08-19T10:17:17.711Z,13.50
2022-08-19T10:19:25.666Z,14.20
2022-08-19T10:21:32.188Z,14.02
2022-08-19T10:23:40.515Z,14.75
2022-08-19T10:25:46.980Z,14.00
2022-08-19T10:27:51.642Z,14.20
2022-08-19T10:29:58.876Z,14.32
2022-08-19T10:32:04.704Z,13.35
2022-08-19T10:34:27.072Z,13.75
2022-08-19T10:36:33.600Z,12.68
2022-08-19T10:38:38.477Z,12.38
2022-08-19T10:40:41.934Z,12.45
2022-08-19T10:42:47.489Z,12.63
2022-08-19T10:44:52.055Z,11.63
2022-08-19T10:46:55.235Z,12.50
2022-08-19T10:49:00.710Z,12.88
2022-08-19T10:51:04.333Z,11.85
2022-08-19T10:53:09.736Z,12.65
2022-08-19T10:55:12.973Z,11.98
2022-08-19T10:57:16.359Z,12.07
2022-08-19T10:59:26.725Z,12.20
2022-08-19T11:01:30.146Z,13.00
2022-08-19T11:03:33.186Z,12.20
2022-08-19T11:05:36.586Z,12.25
2022-08-19T11:07:43.577Z,12.80
2022-08-19T11:09:46.591Z,12.73
2022-08-19T11:11:49.579Z,13.23
2022-08-19T11:13:53.119Z,12.75
2022-08-19T11:16:07.423Z,13.30
2022-08-19T11:18:13.570Z,13.10
2022-08-19T11:20:16.651Z,11.85
2022-08-19T11:22:19.825Z,12.82
2022-08-19T11:24:24.324Z,13.10
2022-08-19T11:26:28.359Z,12.30
2022-08-19T11:28:31.341Z,12.80
2022-08-19T11:30:34.362Z,12.38
2022-08-19T11:32:40.614Z,13.10
2022-08-19T11:34:44.840Z,14.70
2022-08-19T11:36:49.066Z,13.77
2022-08-19T11:38:52.645Z,14.63
2022-08-19T11:40:57.347Z,14.57
2022-08-19T11:43:00.432Z,13.38
2022-08-19T11:45:04.318Z,12.63
2022-08-19T11:47:09.261Z,12.27
2022-08-19T11:49:16.405Z,12.23
2022-08-19T11:51:22.233Z,12.75
2022-08-19T11:53:25.306Z,12.48
2022-08-19T11:55:28.412Z,12.65
2022-08-19T11:57:31.432Z,12.40
2022-08-19T11:59:34.408Z,13.07
2022-08-19T12:01:37.945Z,11.82
2022-08-19T12:03:41.040Z,12.15
2022-08-19T12:05:47.247Z,12.52
2022-08-19T12:07:50.313Z,12.73
2022-08-19T12:09:53.390Z,12.40
2022-08-19T12:11:58.115Z,12.18
2022-08-19T12:14:01.177Z,12.07
2022-08-19T12:16:09.749Z,11.40
2022-08-19T12:18:12.956Z,11.75
2022-08-19T12:20:16.564Z,11.13
2022-08-19T12:22:22.420Z,12.23
2022-08-19T12:24:25.422Z,11.23
2022-08-19T12:26:30.413Z,11.98
2022-08-19T12:28:33.480Z,11.45
2022-08-19T12:30:39.251Z,11.27
2022-08-19T12:32:42.312Z,11.07
2022-08-19T12:34:45.345Z,11.68
2022-08-19T12:36:48.400Z,12.00
2022-08-19T12:38:54.439Z,14.13
2022-08-19T12:41:00.327Z,13.23
2022-08-19T12:43:03.699Z,12.80
2022-08-19T12:45:12.653Z,13.90
2022-08-19T12:47:15.788Z,14.05
2022-08-19T12:49:34.380Z,13.88
2022-08-19T12:51:42.411Z,13.85
2022-08-19T12:53:45.438Z,14.27
2022-08-19T12:55:56.078Z,12.70
2022-08-19T12:57:59.221Z,12.43
2022-08-19T13:00:06.422Z,14.23
2022-08-19T13:02:09.612Z,12.88
2022-08-19T13:04:12.577Z,14.82
2022-08-19T13:06:15.785Z,14.32
2022-08-19T13:08:22.670Z,14.20
2022-08-19T13:10:30.129Z,13.90
2022-08-19T13:12:35.960Z,13.90
2022-08-19T13:14:39.529Z,13.32
2022-08-19T13:16:42.539Z,13.32
2022-08-19T13:18:47.437Z,12.65
2022-08-19T13:20:52.760Z,13.43
2022-08-19T13:22:56.397Z,13.77
2022-08-19T13:24:59.701Z,13.32
2022-08-19T13:27:02.704Z,12.93
2022-08-19T13:29:08.307Z,13.73
2022-08-19T13:31:11.314Z,12.02
2022-08-19T13:33:15.535Z,11.82
2022-08-19T13:35:19.493Z,12.13
2022-08-19T13:37:22.558Z,13.60
2022-08-19T13:39:26.237Z,11.68
2022-08-19T13:41:29.669Z,10.90
2022-08-19T13:43:32.725Z,12.85
2022-08-19T13:45:38.299Z,13.30
2022-08-19T13:47:41.671Z,11.77
2022-08-19T13:49:44.681Z,12.63
2022-08-19T13:51:47.868Z,12.68
2022-08-19T13:53:50.919Z,13.30
2022-08-19T13:55:55.547Z,14.52
2022-08-19T13:58:00.717Z,13.85
2022-08-19T14:00:11.609Z,14.38
2022-08-19T14:02:17.319Z,13.27
2022-08-19T14:04:20.315Z,14.32
2022-08-19T14:06:23.350Z,14.50
2022-08-19T14:08:26.486Z,15.30
2022-08-19T14:10:30.018Z,14.90
2022-08-19T14:12:33.098Z,16.08
2022-08-19T14:14:38.289Z,16.33
2022-08-19T14:16:41.349Z,15.82
2022-08-19T14:18:46.918Z,15.02
2022-08-19T14:20:50.008Z,15.57
2022-08-19T14:22:53.530Z,15.77
2022-08-19T14:24:57.858Z,14.77
2022-08-19T14:27:00.979Z,12.77
2022-08-19T14:29:04.089Z,13.20
2022-08-19T14:31:07.111Z,14.82
2022-08-19T14:33:10.090Z,16.73
2022-08-19T14:35:16.961Z,16.25
2022-08-19T14:37:20.107Z,16.23
2022-08-19T14:39:23.996Z,19.77
2022-08-19T14:41:27.549Z,17.95
2022-08-19T14:43:30.583Z,18.73
2022-08-19T14:45:35.811Z,20.13
2022-08-19T14:47:40.849Z,19.63
2022-08-19T14:49:49.915Z,20.75
2022-08-19T14:51:56.101Z,19.02
2022-08-19T14:53:59.121Z,20.23
2022-08-19T14:56:02.649Z,18.02
2022-08-19T14:58:08.833Z,19.58
2022-08-19T15:00:14.476Z,18.98
2022-08-19T15:02:33.432Z,19.70
2022-08-19T15:04:37.807Z,21.23
2022-08-19T15:06:40.930Z,21.45
2022-08-19T15:08:46.744Z,21.00
2022-08-19T15:10:49.759Z,22.80
2022-08-19T15:12:52.877Z,23.83
2022-08-19T15:14:56.874Z,22.30
2022-08-19T15:17:00.164Z,24.15
2022-08-19T15:19:03.208Z,25.33
2022-08-19T15:21:06.438Z,25.83
2022-08-19T15:23:09.393Z,22.40
2022-08-19T15:25:17.329Z,23.20
2022-08-19T15:27:20.465Z,24.27
2022-08-19T15:29:23.780Z,24.08
2022-08-19T15:31:28.921Z,23.70
2022-08-19T15:33:32.778Z,21.55
2022-08-19T15:35:35.938Z,24.08
2022-08-19T15:37:38.916Z,21.15
2022-08-19T15:39:41.943Z,21.58
2022-08-19T15:41:47.782Z,23.98
2022-08-19T15:43:52.562Z,23.27
2022-08-19T15:45:55.529Z,22.40
2022-08-19T15:47:58.628Z,25.85
2022-08-19T15:50:01.721Z,27.50
2022-08-19T15:52:05.417Z,28.55
2022-08-19T15:54:10.654Z,24.90
2022-08-19T15:56:14.558Z,26.88
2022-08-19T15:58:27.739Z,23.88
2022-08-19T16:00:32.636Z,25.65
2022-08-19T16:02:37.142Z,24.65
2022-08-19T16:04:40.356Z,25.48
2022-08-19T16:06:46.608Z,26.08
2022-08-19T16:08:49.595Z,27.70
2022-08-19T16:10:52.613Z,27.15
2022-08-19T16:12:56.897Z,26.45
2022-08-19T16:15:02.702Z,26.83
2022-08-19T16:17:05.902Z,27.23
2022-08-19T16:19:10.343Z,27.05
2022-08-19T16:21:15.890Z,28.92
2022-08-19T16:23:18.944Z,29.02
2022-08-19T16:25:22.107Z,28.00
2022-08-19T16:27:25.179Z,28.77
2022-08-19T16:29:34.468Z,25.80
2022-08-19T16:31:46.315Z,27.55
2022-08-19T16:33:49.583Z,27.42
2022-08-19T16:35:58.445Z,26.48
2022-08-19T16:38:03.767Z,27.95
2022-08-19T16:40:08.042Z,31.25
2022-08-19T16:42:11.965Z,28.70
2022-08-19T16:44:16.113Z,29.75
2022-08-19T16:46:19.456Z,30.58
2022-08-19T16:48:30.636Z,28.73
2022-08-19T16:50:48.746Z,27.73
2022-08-19T16:52:52.396Z,27.48
2022-08-19T16:54:55.383Z,29.02
2022-08-19T16:56:58.520Z,26.83
2022-08-19T16:59:01.928Z,26.80
2022-08-19T17:01:07.394Z,27.05
2022-08-19T17:03:14.905Z,24.42
2022-08-19T17:05:20.827Z,27.08
2022-08-19T17:07:23.781Z,30.75
2022-08-19T17:09:26.830Z,34.15
2022-08-19T17:11:34.857Z,34.40
2022-08-19T17:13:38.804Z,33.38
2022-08-19T17:15:42.518Z,33.00
2022-08-19T17:17:45.515Z,34.00
2022-08-19T17:19:48.499Z,33.13
2022-08-19T17:21:54.225Z,32.75
2022-08-19T17:23:57.364Z,33.80
2022-08-19T17:26:00.381Z,30.80
2022-08-19T17:28:07.604Z,31.55
2022-08-19T17:30:13.734Z,31.65
2022-08-19T17:32:16.711Z,30.42
2022-08-19T17:34:28.056Z,30.02
2022-08-19T17:36:33.184Z,28.75
2022-08-19T17:38:39.882Z,27.70
2022-08-19T17:40:43.458Z,27.77
2022-08-19T17:42:46.546Z,27.42
2022-08-19T17:44:50.687Z,26.85
2022-08-19T17:46:54.144Z,28.75
2022-08-19T17:48:57.974Z,27.63
2022-08-19T17:51:00.993Z,27.23
2022-08-19T17:53:04.802Z,27.30
2022-08-19T17:55:11.277Z,29.17
2022-08-19T17:57:14.337Z,30.92
2022-08-19T17:59:17.407Z,29.02
2022-08-19T18:01:21.061Z,33.00
2022-08-19T18:03:27.712Z,34.72
2022-08-19T18:05:33.569Z,33.35
2022-08-19T18:07:36.658Z,32.67
2022-08-19T18:09:42.858Z,33.42
2022-08-19T18:11:56.915Z,33.35
2022-08-19T18:14:00.169Z,32.55
2022-08-19T18:16:04.813Z,32.58
2022-08-19T18:18:11.754Z,31.42
2022-08-19T18:20:19.751Z,31.80
2022-08-19T18:22:26.512Z,31.98
2022-08-19T18:24:29.518Z,31.77
2022-08-19T18:26:32.866Z,30.33
2022-08-19T18:28:38.635Z,30.13
2022-08-19T18:30:41.755Z,30.13
2022-08-19T18:32:47.278Z,27.15
2022-08-19T18:34:50.343Z,28.58
2022-08-19T18:36:54.168Z,30.98
2022-08-19T18:38:57.317Z,31.10
2022-08-19T18:41:01.036Z,27.45
2022-08-19T18:43:04.864Z,28.33
2022-08-19T18:45:11.623Z,30.17
2022-08-19T18:47:14.610Z,29.92
2022-08-19T18:49:21.901Z,27.90
2022-08-19T18:51:28.485Z,27.00
2022-08-19T18:53:34.336Z,29.30
2022-08-19T18:55:37.648Z,29.42
2022-08-19T18:57:40.613Z,26.48
2022-08-19T18:59:43.662Z,24.98
2022-08-19T19:01:49.962Z,27.73
2022-08-19T19:03:55.156Z,28.63
2022-08-19T19:06:00.013Z,31.23
2022-08-19T19:08:03.240Z,28.92
2022-08-19T19:10:07.978Z,27.02
2022-08-19T19:12:12.462Z,28.23
2022-08-19T19:14:32.744Z,35.22
2022-08-19T19:16:42.746Z,32.75
2022-08-19T19:18:49.096Z,36.78
2022-08-19T19:20:52.291Z,31.67
2022-08-19T19:22:56.848Z,37.88
2022-08-19T19:25:01.584Z,35.72
2022-08-19T19:27:06.118Z,33.90
2022-08-19T19:29:09.231Z,38.72
2022-08-19T19:31:14.500Z,38.00
2022-08-19T19:33:17.453Z,38.55
2022-08-19T19:35:23.244Z,36.45
2022-08-19T19:37:26.494Z,37.25
2022-08-19T19:39:45.080Z,40.42
2022-08-19T19:41:50.268Z,38.20
2022-08-19T19:44:16.397Z,41.95
2022-08-19T19:46:17.691Z,42.08
2022-08-19T19:48:20.841Z,42.70
2022-08-19T19:50:26.703Z,46.22
2022-08-19T19:52:29.617Z,46.70
2022-08-19T19:54:32.602Z,46.78
2022-08-19T19:56:35.690Z,46.72
2022-08-19T19:58:39.128Z,48.35
2022-08-19T20:00:42.166Z,46.92
2022-08-19T20:02:49.626Z,47.28
2022-08-19T20:04:53.320Z,45.75
2022-08-19T20:06:58.521Z,49.05
2022-08-19T20:09:01.069Z,50.05
2022-08-19T20:11:06.070Z,49.63
2022-08-19T20:13:09.722Z,48.63
2022-08-19T20:15:12.765Z,48.80
2022-08-19T20:17:15.729Z,46.22
2022-08-19T20:19:21.438Z,50.28
2022-08-19T20:21:26.884Z,46.55
2022-08-19T20:23:32.421Z,43.85
2022-08-19T20:25:37.193Z,43.45
2022-08-19T20:27:41.045Z,45.92
2022-08-19T20:29:45.537Z,46.35
2022-08-19T20:31:57.229Z,46.97
2022-08-19T20:34:03.064Z,42.40
2022-08-19T20:36:06.649Z,43.40
2022-08-19T20:38:09.670Z,44.28
2022-08-19T20:40:16.330Z,44.83
2022-08-19T20:42:24.820Z,44.88
2022-08-19T20:44:27.785Z,43.60
2022-08-19T20:46:31.008Z,41.50
2022-08-19T20:48:34.069Z,45.45
2022-08-19T20:50:37.194Z,41.70
2022-08-19T20:52:40.143Z,40.90
2022-08-19T20:54:43.358Z,41.28
2022-08-19T20:56:48.911Z,38.28
2022-08-19T20:58:55.463Z,43.38
2022-08-19T21:01:01.602Z,42.25
2022-08-19T21:03:05.015Z,42.10
2022-08-19T21:05:08.377Z,42.40
2022-08-19T21:07:11.332Z,42.78
2022-08-19T21:09:14.379Z,40.78
2022-08-19T21:11:17.406Z,38.65
2022-08-19T21:13:26.393Z,41.33
2022-08-19T21:15:29.574Z,42.63
2022-08-19T21:17:32.619Z,41.53
2022-08-19T21:19:36.060Z,42.03
2022-08-19T21:21:39.003Z,40.83
2022-08-19T21:23:42.452Z,41.17
2022-08-19T21:25:54.372Z,42.50
2022-08-19T21:27:57.752Z,41.05
2022-08-19T21:30:02.982Z,39.72
2022-08-19T21:32:06.113Z,40.92
2022-08-19T21:34:08.608Z,40.20
2022-08-19T21:36:11.415Z,39.15
2022-08-19T21:38:14.475Z,40.53
2022-08-19T21:40:18.602Z,40.28
2022-08-19T21:42:21.978Z,41.35
2022-08-19T21:44:25.057Z,40.75
2022-08-19T21:46:30.745Z,38.80
2022-08-19T21:48:33.767Z,38.67
2022-08-19T21:50:36.728Z,40.85
2022-08-19T21:52:40.620Z,38.22
2022-08-19T21:54:43.572Z,40.17
2022-08-19T21:56:46.515Z,38.17
2022-08-19T21:58:49.486Z,40.83
2022-08-19T22:00:52.540Z,42.85
2022-08-19T22:02:58.827Z,40.22
2022-08-19T22:05:01.892Z,38.90
2022-08-19T22:07:05.274Z,39.75
2022-08-19T22:09:08.217Z,40.38
2022-08-19T22:11:12.024Z,41.20
2022-08-19T22:13:15.996Z,40.72
2022-08-19T22:15:21.006Z,42.33
2022-08-19T22:17:24.583Z,41.30
2022-08-19T22:19:30.656Z,41.90
2022-08-19T22:21:40.771Z,43.10
2022-08-19T22:23:44.619Z,43.97
2022-08-19T22:25:47.986Z,44.03
2022-08-19T22:27:51.800Z,43.40
2022-08-19T22:29:59.952Z,45.28
2022-08-19T22:32:22.978Z,42.70
2022-08-19T22:34:29.105Z,43.40
2022-08-19T22:36:32.224Z,43.38
2022-08-19T22:38:35.863Z,42.30
2022-08-19T22:40:40.942Z,43.45
2022-08-19T22:42:44.077Z,44.67
2022-08-19T22:44:47.095Z,43.03
2022-08-19T22:46:50.283Z,45.72
2022-08-19T22:48:56.011Z,44.00
2022-08-19T22:51:07.225Z,41.42
2022-08-19T22:53:11.451Z,41.63
2022-08-19T22:55:14.525Z,39.47
2022-08-19T22:57:21.870Z,41.67
2022-08-19T22:59:24.887Z,40.00
2022-08-19T23:01:30.530Z,36.90
2022-08-19T23:03:33.940Z,36.58
2022-08-19T23:05:37.955Z,36.90
2022-08-19T23:07:50.121Z,35.58
2022-08-19T23:09:57.282Z,38.67
2022-08-19T23:12:00.302Z,39.30
2022-08-19T23:14:03.898Z,39.03
2022-08-19T23:16:09.254Z,40.17
2022-08-19T23:18:13.185Z,38.88
2022-08-19T23:20:16.904Z,38.80
2022-08-19T23:22:20.004Z,36.42
2022-08-19T23:24:30.854Z,36.17
2022-08-19T23:26:36.108Z,36.83
2022-08-19T23:28:39.449Z,35.72
2022-08-19T23:30:46.500Z,36.53
2022-08-19T23:32:49.755Z,35.65
2022-08-19T23:34:55.719Z,34.53
2022-08-19T23:36:58.978Z,36.33
2022-08-19T23:39:01.965Z,37.78
2022-08-19T23:41:10.149Z,36.78
2022-08-19T23:43:17.416Z,34.65
2022-08-19T23:45:27.782Z,36.00
2022-08-19T23:47:30.824Z,34.15
2022-08-19T23:49:33.867Z,37.92
2022-08-19T23:51:36.916Z,39.33
2022-08-19T23:53:41.263Z,40.95
2022-08-19T23:55:47.927Z,40.38
2022-08-19T23:57:54.194Z,40.67
2022-08-19T23:59:57.303Z,43.20
